Time;durP1;ratioP1;P1;durP2;ratioP2;P2;SDS_P1;SDS_P2;PMS_P1;PMS_P2;Temp;Humidity;BMP_temperature;BMP_pressure;BME280_temperature;BME280_humidity;BME280_pressure;Samples;Min_cycle;Max_cycle;Signal;HPM_P1;HPM_P2
2022/05/08 00:00:39;;;;;;;9.50;5.50;;;15.60;70.80;;;;;;5018880;28;20456;-69
2022/05/08 00:03:05;;;;;;;8.63;5.63;;;15.60;70.90;;;;;;5020629;28;20837;-69
2022/05/08 00:05:31;;;;;;;8.05;5.80;;;15.60;71.10;;;;;;5003147;28;20386;-69
2022/05/08 00:07:56;;;;;;;8.65;5.95;;;15.50;71.30;;;;;;5023771;28;20045;-69
2022/05/08 00:10:22;;;;;;;8.52;5.68;;;15.50;71.50;;;;;;5009982;28;20478;-69
2022/05/08 00:12:48;;;;;;;8.30;5.60;;;15.50;71.30;;;;;;5020395;28;20537;-69
2022/05/08 00:15:13;;;;;;;9.98;5.70;;;15.50;71.10;;;;;;5018643;28;20049;-69
2022/05/08 00:17:39;;;;;;;8.57;6.00;;;15.50;71.20;;;;;;5009939;28;20047;-69
2022/05/08 00:20:07;;;;;;;9.45;5.80;;;15.50;71.10;;;;;;5009115;28;20022;-69
2022/05/08 00:22:33;;;;;;;10.95;6.03;;;15.40;71.00;;;;;;5025837;28;20064;-69
2022/05/08 00:25:03;;;;;;;8.30;5.55;;;15.40;70.70;;;;;;5021530;28;20053;-69
2022/05/08 00:27:29;;;;;;;7.45;5.30;;;15.40;70.50;;;;;;5014288;28;20045;-69
2022/05/08 00:29:55;;;;;;;8.93;5.60;;;15.40;70.40;;;;;;5012610;28;20037;-69
2022/05/08 00:32:21;;;;;;;9.63;5.50;;;15.30;70.30;;;;;;5021646;28;20022;-69
2022/05/08 00:34:47;;;;;;;8.20;5.68;;;15.30;70.30;;;;;;5011782;28;20044;-69
2022/05/08 00:37:13;;;;;;;7.57;5.10;;;15.30;71.20;;;;;;5024950;28;20026;-69
2022/05/08 00:39:39;;;;;;;8.40;5.40;;;15.30;70.30;;;;;;5011020;28;20029;-69
2022/05/08 00:42:05;;;;;;;9.73;4.93;;;15.20;70.40;;;;;;5008464;28;20022;-69
2022/05/08 00:44:30;;;;;;;6.95;4.97;;;15.20;70.20;;;;;;5009484;28;20021;-69
2022/05/08 00:46:56;;;;;;;9.45;5.72;;;15.20;69.90;;;;;;5012518;28;20026;-69
2022/05/08 00:49:22;;;;;;;8.80;5.47;;;15.10;69.80;;;;;;5014385;28;20026;-69
2022/05/08 00:51:49;;;;;;;7.13;4.63;;;15.10;70.20;;;;;;5012774;28;20066;-69
2022/05/08 00:54:15;;;;;;;9.55;5.25;;;15.10;69.90;;;;;;5013031;28;20124;-68
2022/05/08 00:56:42;;;;;;;7.40;5.57;;;15.00;69.40;;;;;;5007043;28;20497;-69
2022/05/08 00:59:09;;;;;;;8.98;5.40;;;15.00;69.60;;;;;;5008222;28;20084;-69
2022/05/08 01:01:35;;;;;;;11.35;5.72;;;15.00;69.90;;;;;;5025323;28;20025;-69
2022/05/08 01:04:01;;;;;;;9.57;5.88;;;14.90;70.20;;;;;;5019762;28;20481;-69
2022/05/08 01:06:29;;;;;;;9.18;6.05;;;14.90;70.70;;;;;;5016699;28;20036;-69
2022/05/08 01:08:55;;;;;;;8.02;5.40;;;14.90;71.10;;;;;;5017653;28;20033;-69
2022/05/08 01:11:21;;;;;;;10.38;6.28;;;14.90;71.50;;;;;;5000269;28;20064;-69
2022/05/08 01:13:47;;;;;;;8.98;5.65;;;14.90;71.50;;;;;;5018740;28;20032;-68
2022/05/08 01:16:17;;;;;;;8.95;5.47;;;14.90;71.60;;;;;;5008064;28;20077;-69
2022/05/08 01:18:45;;;;;;;7.78;5.63;;;14.90;71.70;;;;;;5008367;28;20018;-69
2022/05/08 01:21:14;;;;;;;9.95;5.88;;;14.80;71.50;;;;;;5014141;28;20100;-69
2022/05/08 01:23:40;;;;;;;9.70;5.53;;;14.80;71.40;;;;;;5010248;28;20027;-69
2022/05/08 01:26:06;;;;;;;9.13;5.32;;;14.80;71.20;;;;;;5008372;28;20037;-69
2022/05/08 01:28:32;;;;;;;9.80;5.28;;;14.80;70.80;;;;;;5000305;28;20042;-69
2022/05/08 01:30:58;;;;;;;8.60;5.32;;;14.70;70.20;;;;;;5012882;28;20447;-69
2022/05/08 01:33:24;;;;;;;8.38;5.13;;;14.70;70.00;;;;;;5012531;28;20500;-69
2022/05/08 01:35:50;;;;;;;9.25;6.00;;;14.70;69.50;;;;;;5003919;28;20029;-69
2022/05/08 01:38:18;;;;;;;11.25;5.72;;;14.60;69.60;;;;;;5013368;28;20041;-68
2022/05/08 01:40:44;;;;;;;8.75;5.65;;;14.60;69.60;;;;;;5012781;28;20312;-69
2022/05/08 01:43:10;;;;;;;8.77;5.60;;;14.50;69.50;;;;;;5016333;28;20145;-69
2022/05/08 01:45:37;;;;;;;10.40;6.32;;;14.50;69.80;;;;;;5003429;28;20058;-69
2022/05/08 01:48:22;;;;;;;9.57;5.78;;;14.40;69.90;;;;;;5009429;28;20042;-69
2022/05/08 01:50:52;;;;;;;9.57;5.88;;;14.40;70.30;;;;;;5000536;28;20044;-68
2022/05/08 01:53:25;;;;;;;8.52;5.50;;;14.40;70.20;;;;;;5008395;28;20034;-69
2022/05/08 01:55:55;;;;;;;8.13;4.95;;;14.30;70.20;;;;;;5022594;28;20105;-69
2022/05/08 01:58:23;;;;;;;7.32;5.50;;;14.30;70.00;;;;;;5017588;28;20026;-69
2022/05/08 02:00:49;;;;;;;9.00;5.35;;;14.30;69.70;;;;;;5019010;28;20128;-68
2022/05/08 02:03:15;;;;;;;7.47;5.75;;;14.20;69.70;;;;;;5014423;28;20033;-69
2022/05/08 02:05:42;;;;;;;8.40;5.40;;;14.20;69.70;;;;;;5008866;28;20028;-68
2022/05/08 02:08:09;;;;;;;10.13;5.28;;;14.20;69.70;;;;;;5021707;28;20041;-68
2022/05/08 02:10:35;;;;;;;8.27;5.90;;;14.20;69.50;;;;;;5014108;28;20030;-69
2022/05/08 02:13:01;;;;;;;8.27;5.72;;;14.20;69.70;;;;;;5016040;28;20084;-69
2022/05/08 02:15:29;;;;;;;8.70;5.55;;;14.20;70.10;;;;;;5011852;28;20112;-68
2022/05/08 02:17:59;;;;;;;9.50;5.60;;;14.10;70.50;;;;;;5009689;28;20083;-69
2022/05/08 02:20:25;;;;;;;9.10;5.45;;;14.10;70.60;;;;;;5007396;28;20036;-69
2022/05/08 02:22:51;;;;;;;7.10;4.95;;;14.10;70.30;;;;;;5011900;28;20104;-68
2022/05/08 02:25:18;;;;;;;8.98;5.72;;;14.00;70.00;;;;;;5009706;28;20030;-69
2022/05/08 02:27:49;;;;;;;8.77;5.40;;;14.00;70.00;;;;;;5018102;28;20060;-69
2022/05/08 02:30:16;;;;;;;10.90;6.20;;;14.00;70.10;;;;;;5011182;28;20076;-69
2022/05/08 02:32:42;;;;;;;10.68;6.35;;;14.00;70.10;;;;;;5010364;28;20030;-69
2022/05/08 02:35:09;;;;;;;10.10;6.22;;;14.00;70.60;;;;;;5011339;28;20477;-68
2022/05/08 02:37:36;;;;;;;8.73;5.97;;;14.00;71.00;;;;;;5013377;28;20381;-69
2022/05/08 02:40:05;;;;;;;8.38;5.93;;;14.00;72.10;;;;;;5020798;28;20026;-69
2022/05/08 02:42:31;;;;;;;7.80;5.70;;;14.00;71.30;;;;;;5011945;28;20022;-69
2022/05/08 02:44:56;;;;;;;9.48;6.35;;;14.00;71.40;;;;;;5014873;28;20037;-69
2022/05/08 02:47:22;;;;;;;8.30;5.70;;;14.00;71.50;;;;;;5011766;28;20041;-69
2022/05/08 02:49:48;;;;;;;9.63;5.85;;;14.00;71.50;;;;;;5009812;28;20034;-69
2022/05/08 02:52:14;;;;;;;9.52;5.80;;;13.90;71.40;;;;;;5017155;28;20493;-69
2022/05/08 02:54:39;;;;;;;9.25;6.25;;;13.90;71.30;;;;;;5013213;28;20026;-69
2022/05/08 02:59:50;;;;;;;9.60;6.25;;;13.90;71.10;;;;;;5010050;28;20045;-69
2022/05/08 03:02:16;;;;;;;8.48;5.68;;;13.80;71.00;;;;;;5009136;28;20034;-69
2022/05/08 03:04:42;;;;;;;10.10;6.03;;;13.80;70.70;;;;;;5011062;28;20474;-69
2022/05/08 03:07:08;;;;;;;9.00;5.82;;;13.80;70.40;;;;;;5024190;28;20036;-69
2022/05/08 03:09:34;;;;;;;9.05;6.03;;;13.70;70.20;;;;;;5017758;28;20472;-69
2022/05/08 03:12:00;;;;;;;9.05;6.00;;;13.70;70.30;;;;;;5014669;28;20415;-69
2022/05/08 03:14:25;;;;;;;8.75;6.07;;;13.70;70.50;;;;;;5019068;28;20128;-69
2022/05/08 03:16:51;;;;;;;8.50;5.90;;;13.70;70.80;;;;;;4998273;28;20026;-69
2022/05/08 03:19:19;;;;;;;8.85;6.20;;;13.60;71.00;;;;;;5012322;28;20417;-70
2022/05/08 03:21:48;;;;;;;8.20;5.80;;;13.60;71.10;;;;;;5019959;28;20034;-69
2022/05/08 03:24:14;;;;;;;9.25;5.90;;;13.60;71.50;;;;;;5019553;28;20037;-69
2022/05/08 03:26:40;;;;;;;7.53;5.60;;;13.60;71.60;;;;;;5007583;28;20034;-69
2022/05/08 03:29:07;;;;;;;14.65;5.47;;;13.60;71.60;;;;;;5017983;28;20028;-69
2022/05/08 03:31:33;;;;;;;9.13;6.47;;;13.50;71.30;;;;;;5012533;28;20116;-69
2022/05/08 03:33:59;;;;;;;9.85;6.68;;;13.50;71.50;;;;;;5011800;28;20140;-69
2022/05/08 03:36:25;;;;;;;9.82;6.80;;;13.50;71.50;;;;;;5016635;28;20033;-69
2022/05/08 03:38:50;;;;;;;9.15;6.25;;;13.50;71.50;;;;;;5013069;28;20048;-69
2022/05/08 03:41:16;;;;;;;10.00;6.50;;;13.50;71.00;;;;;;5009995;28;20034;-69
2022/05/08 03:43:46;;;;;;;10.15;6.50;;;13.40;70.60;;;;;;5019342;28;20547;-69
2022/05/08 03:46:14;;;;;;;9.38;6.05;;;13.40;70.50;;;;;;5019282;28;20083;-69
2022/05/08 03:48:40;;;;;;;7.72;5.47;;;13.40;70.60;;;;;;5007210;28;20035;-69
2022/05/08 03:51:07;;;;;;;7.45;5.53;;;13.30;70.80;;;;;;5009233;28;20039;-69
2022/05/08 03:53:32;;;;;;;7.22;4.82;;;13.30;71.00;;;;;;5021047;28;20033;-69
2022/05/08 03:55:58;;;;;;;7.47;5.30;;;13.30;71.10;;;;;;5020334;28;20029;-69
2022/05/08 03:58:24;;;;;;;9.38;5.78;;;13.30;70.90;;;;;;5014596;28;20033;-69
2022/05/08 04:00:49;;;;;;;8.40;5.95;;;13.30;70.50;;;;;;5014395;28;20037;-69
2022/05/08 04:03:15;;;;;;;8.55;6.20;;;13.20;70.30;;;;;;5010531;28;20034;-68
2022/05/08 04:05:41;;;;;;;8.60;6.00;;;13.20;70.50;;;;;;5000888;28;20029;-69
2022/05/08 04:08:07;;;;;;;12.18;7.85;;;13.10;70.20;;;;;;5024424;28;20045;-68
2022/05/08 04:10:33;;;;;;;10.73;7.30;;;13.10;70.20;;;;;;5009480;28;20038;-70
2022/05/08 04:12:59;;;;;;;10.80;7.70;;;13.10;72.00;;;;;;5021142;28;20443;-70
2022/05/08 04:18:09;;;;;;;28.02;14.98;;;13.00;73.80;;;;;;5005880;28;20037;-69
2022/05/08 04:20:35;;;;;;;28.98;16.23;;;13.10;75.60;;;;;;5008857;28;20034;-70
2022/05/08 04:25:46;;;;;;;32.08;17.88;;;13.10;80.60;;;;;;5003071;28;26438;-69
2022/05/08 04:28:11;;;;;;;32.35;18.65;;;13.20;81.70;;;;;;5023634;28;20501;-69
2022/05/08 04:30:37;;;;;;;31.42;18.70;;;13.20;82.80;;;;;;5011437;28;20386;-69
2022/05/08 04:33:03;;;;;;;31.38;18.35;;;13.30;83.30;;;;;;5008527;28;20238;-69
2022/05/08 04:35:29;;;;;;;33.75;19.35;;;13.30;84.00;;;;;;5007652;28;20405;-68
2022/05/08 04:37:55;;;;;;;35.30;19.23;;;13.30;85.40;;;;;;5025348;28;20109;-69
2022/05/08 04:40:21;;;;;;;36.47;18.83;;;13.40;86.50;;;;;;5000491;28;20023;-69
2022/05/08 04:42:46;;;;;;;35.75;19.60;;;13.40;86.90;;;;;;5014912;28;20026;-69
2022/05/08 04:45:12;;;;;;;37.45;19.95;;;13.40;86.80;;;;;;5012637;28;20562;-70
2022/05/08 04:47:38;;;;;;;37.00;20.85;;;13.40;86.80;;;;;;5008728;28;20587;-69
2022/05/08 04:50:04;;;;;;;35.15;19.00;;;13.50;87.00;;;;;;5023713;28;20579;-70
2022/05/08 04:52:29;;;;;;;38.88;21.20;;;13.50;88.50;;;;;;5009275;28;20478;-69
2022/05/08 04:54:55;;;;;;;37.67;21.17;;;13.50;88.50;;;;;;5017953;28;20053;-69
2022/05/08 04:57:21;;;;;;;38.55;21.95;;;13.50;88.50;;;;;;5011264;28;20034;-69
2022/05/08 04:59:46;;;;;;;37.58;20.52;;;13.50;88.50;;;;;;5011447;28;20033;-69
2022/05/08 05:02:13;;;;;;;41.03;22.00;;;13.60;89.20;;;;;;5010176;28;20026;-69
2022/05/08 05:04:39;;;;;;;36.80;21.02;;;13.60;88.20;;;;;;5025087;28;20022;-69
2022/05/08 05:07:04;;;;;;;38.60;21.42;;;13.70;87.90;;;;;;5010652;28;20455;-69
2022/05/08 05:09:30;;;;;;;42.60;22.60;;;13.70;87.90;;;;;;5019830;28;20074;-69
2022/05/08 05:11:56;;;;;;;45.75;22.85;;;13.80;88.90;;;;;;5017625;28;20124;-69
2022/05/08 05:14:22;;;;;;;40.47;22.98;;;13.80;89.30;;;;;;5003658;28;20042;-69
2022/05/08 05:16:48;;;;;;;43.33;22.33;;;13.80;89.30;;;;;;5013140;28;20954;-70
2022/05/08 05:19:15;;;;;;;43.10;23.25;;;13.80;88.90;;;;;;5007581;28;20054;-70
2022/05/08 05:21:40;;;;;;;41.63;22.08;;;14.30;92.50;;;;;;5017480;28;20061;-68
2022/05/08 05:24:06;;;;;;;45.17;23.15;;;14.60;90.50;;;;;;5013432;28;20033;-69
2022/05/08 05:26:32;;;;;;;40.85;21.63;;;;;;;;;;5007931;28;20036;-70
2022/05/08 05:28:58;;;;;;;43.10;21.63;;;;;;;;;;5008441;28;20499;-69
2022/05/08 05:31:25;;;;;;;40.72;20.65;;;;;;;;;;5015447;28;20017;-69
2022/05/08 05:33:51;;;;;;;38.92;20.38;;;;;;;;;;4990503;28;20050;-70
2022/05/08 05:36:18;;;;;;;38.30;20.45;;;;;;;;;;5010579;28;20022;-70
2022/05/08 05:38:44;;;;;;;36.95;19.15;;;;;;;;;;5014631;28;20033;-70
2022/05/08 05:41:10;;;;;;;36.88;19.63;;;;;;;;;;5009192;28;20029;-69
2022/05/08 05:43:36;;;;;;;40.60;21.13;;;;;;;;;;5010651;28;20087;-69
2022/05/08 05:48:46;;;;;;;38.47;19.65;;;;;;;;;;5010910;28;20079;-70
2022/05/08 05:51:12;;;;;;;36.50;19.63;;;;;;;;;;5010490;28;20099;-70
2022/05/08 05:53:38;;;;;;;39.47;19.73;;;;;;;;;;5014223;28;20068;-70
2022/05/08 05:56:05;;;;;;;39.33;19.60;;;;;;;;;;5009157;28;20045;-70
2022/05/08 05:58:31;;;;;;;42.38;20.42;;;;;;;;;;5021550;28;20045;-70
2022/05/08 06:00:57;;;;;;;44.03;20.95;;;;;;;;;;5012515;28;20045;-71
2022/05/08 06:03:24;;;;;;;43.15;19.35;;;;;;;;;;5008082;28;20168;-70
2022/05/08 06:05:50;;;;;;;40.78;19.90;;;;;;;;;;5009107;28;20037;-71
2022/05/08 06:08:16;;;;;;;40.50;19.30;;;;;;;;;;5011426;28;20034;-70
2022/05/08 06:10:42;;;;;;;37.55;19.33;;;;;;;;;;5011846;28;20033;-70
2022/05/08 06:13:08;;;;;;;40.55;19.50;;;;;;;;;;5017064;28;20029;-70
2022/05/08 06:15:34;;;;;;;38.65;18.88;;;;;;;;;;5010589;28;20053;-70
2022/05/08 06:18:00;;;;;;;37.90;18.60;;;;;;;;;;5015190;28;20033;-70
2022/05/08 06:20:26;;;;;;;41.78;19.00;;;;;;;;;;5022594;28;20022;-70
2022/05/08 06:22:52;;;;;;;42.20;20.23;;;14.70;89.70;;;;;;5013588;28;20378;-69
2022/05/08 06:25:18;;;;;;;44.00;21.48;;;;;;;;;;5014677;28;20041;-70
2022/05/08 06:27:44;;;;;;;42.63;19.48;;;;;;;;;;5021854;28;20595;-70
2022/05/08 06:30:11;;;;;;;41.45;21.35;;;14.80;90.40;;;;;;5020783;28;20041;-70
2022/05/08 06:32:36;;;;;;;42.60;20.73;;;14.80;91.00;;;;;;5012800;28;20022;-70
2022/05/08 06:35:02;;;;;;;46.67;21.92;;;14.80;91.00;;;;;;5020692;28;20025;-70
2022/05/08 06:37:28;;;;;;;44.53;21.20;;;;;;;;;;5017000;28;20544;-70
2022/05/08 06:39:54;;;;;;;40.45;20.10;;;;;;;;;;5013638;28;20041;-70
2022/05/08 06:42:20;;;;;;;42.97;20.38;;;;;;;;;;5017084;28;20044;-70
2022/05/08 06:44:46;;;;;;;48.45;22.00;;;;;;;;;;5022235;28;20018;-70
2022/05/08 06:47:12;;;;;;;43.75;21.05;;;;;;;;;;5010921;28;20496;-70
2022/05/08 06:49:38;;;;;;;47.50;20.45;;;;;;;;;;5023561;28;20096;-70
2022/05/08 06:52:05;;;;;;;47.50;21.20;;;;;;;;;;5015120;28;20053;-70
2022/05/08 06:54:31;;;;;;;47.58;21.65;;;;;;;;;;5007189;28;20030;-70
2022/05/08 06:56:59;;;;;;;44.63;21.35;;;;;;;;;;5011864;28;20167;-70
2022/05/08 07:02:11;;;;;;;44.42;20.95;;;;;;;;;;5002576;28;20049;-69
2022/05/08 07:04:38;;;;;;;43.47;21.17;;;;;;;;;;5021321;28;20030;-71
2022/05/08 07:07:04;;;;;;;43.30;20.98;;;;;;;;;;5015001;28;20026;-70
2022/05/08 07:09:32;;;;;;;45.50;21.67;;;;;;;;;;5009607;28;20546;-71
2022/05/08 07:11:58;;;;;;;45.20;21.88;;;;;;;;;;5010597;28;20105;-71
2022/05/08 07:14:24;;;;;;;47.53;22.85;;;;;;;;;;4999605;28;20069;-71
2022/05/08 07:16:50;;;;;;;48.38;22.15;;;;;;;;;;5025584;28;20092;-70
2022/05/08 07:19:16;;;;;;;42.95;23.23;;;15.20;91.40;;;;;;5010051;28;20034;-70
2022/05/08 07:21:42;;;;;;;45.92;22.05;;;;;;;;;;5008971;28;20044;-70
2022/05/08 07:24:08;;;;;;;46.78;22.80;;;;;;;;;;5015051;28;20072;-71
2022/05/08 07:26:36;;;;;;;46.38;22.73;;;;;;;;;;5013503;28;20032;-70
2022/05/08 07:29:04;;;;;;;45.13;22.92;;;;;;;;;;5024590;28;20485;-70
2022/05/08 07:31:31;;;;;;;46.95;22.67;;;;;;;;;;5026464;28;20034;-70
2022/05/08 07:36:41;;;;;;;44.58;22.15;;;;;;;;;;5005184;28;20102;-69
2022/05/08 07:39:08;;;;;;;45.67;21.95;;;;;;;;;;5007555;28;20034;-71
2022/05/08 07:41:34;;;;;;;44.70;22.88;;;17.80;86.70;;;;;;5013558;28;20030;-70
2022/05/08 07:44:00;;;;;;;47.75;22.90;;;17.40;96.60;;;;;;5009889;28;20034;-70
2022/05/08 07:46:26;;;;;;;44.80;22.90;;;;;;;;;;5027998;28;20025;-71
2022/05/08 07:48:52;;;;;;;42.78;22.30;;;17.90;77.50;;;;;;5012835;28;20493;-71
2022/05/08 07:51:18;;;;;;;46.70;25.92;;;;;;;;;;5012648;28;20270;-71
2022/05/08 07:53:44;;;;;;;44.42;23.95;;;;;;;;;;5009000;28;20035;-70
2022/05/08 07:56:10;;;;;;;38.53;21.23;;;17.70;99.40;;;;;;5012076;28;20092;-68
2022/05/08 07:58:36;;;;;;;45.47;24.13;;;18.70;99.40;;;;;;5020542;28;20477;-68
2022/05/08 08:01:02;;;;;;;41.88;22.90;;;18.40;74.60;;;;;;5013171;28;20033;-69
2022/05/08 08:03:31;;;;;;;43.22;22.95;;;17.90;99.80;;;;;;5006517;28;20041;-69
2022/05/08 08:05:58;;;;;;;43.35;22.75;;;18.50;74.00;;;;;;5010455;28;20030;-69
2022/05/08 08:08:25;;;;;;;42.72;22.40;;;18.70;73.20;;;;;;5011322;28;20034;-68
2022/05/08 08:10:58;;;;;;;43.63;22.92;;;18.80;72.10;;;;;;5007365;28;20069;-68
2022/05/08 08:13:26;;;;;;;43.83;23.42;;;;;;;;;;5010708;28;20033;-68
2022/05/08 08:15:53;;;;;;;40.65;22.75;;;19.50;69.60;;;;;;5019208;28;20097;-68
2022/05/08 08:18:19;;;;;;;39.05;22.30;;;;;;;;;;5020445;28;20041;-68
2022/05/08 08:20:45;;;;;;;40.35;22.35;;;20.30;71.90;;;;;;5020066;28;20511;-68
2022/05/08 08:23:11;;;;;;;38.92;22.17;;;;;;;;;;5022713;28;20025;-68
2022/05/08 08:25:37;;;;;;;40.00;22.40;;;21.00;92.60;;;;;;5019606;28;20056;-68
2022/05/08 08:28:03;;;;;;;41.00;22.58;;;21.20;92.10;;;;;;5022439;28;20048;-68
2022/05/08 08:30:29;;;;;;;37.88;22.05;;;;;;;;;;5018217;28;20025;-68
2022/05/08 08:32:55;;;;;;;36.75;21.20;;;21.30;60.90;;;;;;5019443;28;20112;-68
2022/05/08 08:35:22;;;;;;;41.95;22.10;;;21.30;66.30;;;;;;5022441;28;20453;-68
2022/05/08 08:37:48;;;;;;;39.33;22.92;;;21.50;90.80;;;;;;5024236;28;20033;-68
2022/05/08 08:40:14;;;;;;;38.78;22.42;;;21.10;59.70;;;;;;5019830;28;20358;-68
2022/05/08 08:42:43;;;;;;;37.72;22.63;;;21.20;59.50;;;;;;5015051;28;20037;-68
2022/05/08 08:48:02;;;;;;;38.03;21.92;;;21.40;58.70;;;;;;5012490;28;20131;-68
2022/05/08 08:50:28;;;;;;;34.75;21.58;;;21.50;88.90;;;;;;5012182;28;20021;-68
2022/05/08 08:52:58;;;;;;;38.63;20.98;;;21.90;57.00;;;;;;5014424;28;20107;-68
2022/05/08 08:55:24;;;;;;;36.30;21.55;;;;;;;;;;4991306;28;20489;-68
2022/05/08 08:57:54;;;;;;;35.38;21.52;;;22.60;54.80;;;;;;5008319;28;20041;-68
2022/05/08 09:00:21;;;;;;;37.70;21.25;;;22.20;60.80;;;;;;5008260;28;20057;-68
2022/05/08 09:02:48;;;;;;;38.17;21.00;;;22.80;85.00;;;;;;5017605;28;20125;-68
2022/05/08 09:05:14;;;;;;;37.80;21.23;;;;;;;;;;5003981;28;20022;-69
2022/05/08 09:07:52;;;;;;;36.67;20.63;;;24.00;75.80;;;;;;5011494;28;20081;-69
2022/05/08 09:10:27;;;;;;;34.78;20.60;;;23.70;58.80;;;;;;5015649;28;20060;-69
2022/05/08 09:12:53;;;;;;;36.65;21.20;;;24.40;78.10;;;;;;5012602;28;20038;-69
2022/05/08 09:15:24;;;;;;;33.45;20.50;;;24.20;49.60;;;;;;5014750;28;20861;-68
2022/05/08 09:17:55;;;;;;;34.03;21.48;;;24.40;49.50;;;;;;5014891;28;20456;-68
2022/05/08 09:20:39;;;;;;;36.88;21.75;;;24.70;48.80;;;;;;5018003;28;20017;-69
2022/05/08 09:23:14;;;;;;;35.63;21.42;;;24.90;47.20;;;;;;4993060;28;20037;-69
2022/05/08 09:26:00;;;;;;;35.25;22.42;;;25.10;46.00;;;;;;5022122;28;20026;-69
2022/05/08 09:28:42;;;;;;;37.58;21.58;;;25.30;45.10;;;;;;5020406;28;20099;-69
2022/05/08 09:31:16;;;;;;;32.63;20.52;;;25.40;45.30;;;;;;5018219;28;20026;-68
2022/05/08 09:33:42;;;;;;;35.88;22.02;;;;;;;;;;5012952;28;20412;-68
2022/05/08 09:36:16;;;;;;;37.97;22.27;;;25.30;45.30;;;;;;5018450;28;20049;-68
2022/05/08 09:38:53;;;;;;;36.72;20.67;;;25.30;45.40;;;;;;5016579;28;20029;-69
2022/05/08 09:41:19;;;;;;;35.55;21.80;;;;;;;;;;5005319;28;20056;-69
2022/05/08 09:43:46;;;;;;;34.35;21.02;;;25.80;65.60;;;;;;5007610;28;20041;-67
2022/05/08 09:46:12;;;;;;;35.20;21.55;;;25.40;67.30;;;;;;5014378;28;20030;-68
2022/05/08 09:48:39;;;;;;;32.75;20.95;;;26.10;66.10;;;;;;5016017;28;20044;-69
2022/05/08 09:51:15;;;;;;;33.15;20.98;;;26.00;49.20;;;;;;5014789;28;20036;-69
2022/05/08 09:53:43;;;;;;;41.40;20.38;;;25.90;43.80;;;;;;5005753;28;20033;-69
2022/05/08 09:56:13;;;;;;;34.35;21.52;;;26.60;64.50;;;;;;5007489;28;20052;-68
2022/05/08 09:58:43;;;;;;;34.75;21.13;;;26.30;46.60;;;;;;5005305;28;20053;-72
2022/05/08 10:01:09;;;;;;;30.52;19.33;;;26.20;64.70;;;;;;5010550;28;20799;-71
2022/05/08 10:03:36;;;;;;;32.38;19.45;;;27.10;41.30;;;;;;5013349;28;20064;-70
2022/05/08 10:06:02;;;;;;;32.53;19.85;;;26.70;60.20;;;;;;5004341;28;20604;-70
2022/05/08 10:08:30;;;;;;;32.00;21.10;;;27.10;64.20;;;;;;5005917;28;20117;-69
2022/05/08 10:14:00;;;;;;;32.35;20.23;;;27.20;39.70;;;;;;5006804;28;20611;-73
2022/05/08 10:16:52;;;;;;;33.05;19.77;;;27.50;38.70;;;;;;5009030;28;20088;-72
2022/05/08 10:19:21;;;;;;;57.05;31.75;;;;;;;;;;5010965;28;20505;-72
2022/05/08 10:22:06;;;;;;;30.20;19.37;;;28.50;52.80;;;;;;5011420;28;20022;-70
2022/05/08 10:24:38;;;;;;;32.03;18.98;;;28.50;51.20;;;;;;5011093;28;20034;-69
2022/05/08 10:27:31;;;;;;;29.73;19.30;;;28.50;36.60;;;;;;5010811;28;20603;-69
2022/05/08 10:29:57;;;;;;;37.55;19.83;;;28.70;49.00;;;;;;5012154;28;20029;-71
2022/05/08 10:32:32;;;;;;;30.17;19.48;;;29.00;47.00;;;;;;5009794;28;20369;-70
2022/05/08 10:35:14;;;;;;;1130.88;678.13;;;29.40;46.30;;;;;;5000395;28;20038;-69
2022/05/08 10:38:16;;;;;;;275.83;246.60;;;29.30;35.20;;;;;;5007352;28;20029;-71
2022/05/08 10:40:42;;;;;;;80.90;73.18;;;29.50;47.50;;;;;;5005709;28;20065;-71
2022/05/08 10:43:10;;;;;;;72.18;64.57;;;29.50;42.40;;;;;;5011961;28;20406;-72
2022/05/08 10:45:40;;;;;;;41.50;34.22;;;29.70;36.80;;;;;;5017627;28;20492;-70
2022/05/08 10:48:14;;;;;;;47.33;41.53;;;32.90;43.80;;;;;;5016997;28;20048;-70
2022/05/08 10:50:42;;;;;;;158.80;144.25;;;33.20;30.30;;;;;;5021838;28;20156;-72
2022/05/08 10:53:24;;;;;;;90.10;81.68;;;33.30;42.80;;;;;;5014757;28;20022;-70
2022/05/08 10:55:51;;;;;;;48.10;39.58;;;33.90;26.90;;;;;;5026306;28;20102;-71
2022/05/08 10:58:17;;;;;;;23.88;17.30;;;34.60;40.20;;;;;;5026006;28;20071;-71
2022/05/08 11:00:43;;;;;;;25.05;18.40;;;;;;;;;;5021919;28;20112;-72
2022/05/08 11:03:09;;;;;;;26.63;20.95;;;36.40;31.50;;;;;;5019461;28;20033;-71
2022/05/08 11:05:38;;;;;;;21.95;15.88;;;36.10;23.80;;;;;;5010317;28;20037;-71
2022/05/08 11:08:10;;;;;;;26.13;19.75;;;36.70;23.20;;;;;;5009382;28;20513;-71
2022/05/08 11:10:40;;;;;;;20.50;15.07;;;37.60;28.30;;;;;;5009737;28;20113;-72
2022/05/08 11:13:18;;;;;;;65.03;57.90;;;38.70;29.40;;;;;;5009228;28;20068;-71
2022/05/08 11:15:44;;;;;;;28.58;22.98;;;39.10;26.80;;;;;;5007506;28;20136;-72
2022/05/08 11:18:18;;;;;;;738.15;488.50;;;39.50;26.90;;;;;;5013289;28;20033;-71
2022/05/08 11:20:48;;;;;;;31.33;23.25;;;40.20;26.80;;;;;;5008189;28;20470;-70
2022/05/08 11:23:15;;;;;;;268.73;222.73;;;38.10;25.70;;;;;;5022307;28;20033;-71
2022/05/08 11:25:45;;;;;;;149.73;134.23;;;37.40;33.50;;;;;;5014145;28;20049;-70
2022/05/08 11:28:14;;;;;;;;;;;37.30;23.70;;;;;;5015461;28;20061;-69
2022/05/08 11:30:40;;;;;;;46.22;40.15;;;32.90;43.20;;;;;;5007986;28;19913;-69
2022/05/08 11:36:05;;;;;;;20.73;14.20;;;36.60;22.90;;;;;;5016823;28;20107;-70
2022/05/08 11:38:44;;;;;;;;;;;36.80;23.60;;;;;;5015763;28;20026;-70
2022/05/08 11:41:20;;;;;;;30.38;23.15;;;35.10;23.90;;;;;;5007981;28;19913;-70
2022/05/08 11:43:50;;;;;;;110.28;100.05;;;34.90;41.50;;;;;;5009209;28;20492;-69
2022/05/08 11:46:18;;;;;;;20.83;16.80;;;35.80;23.50;;;;;;5015161;28;20030;-70
2022/05/08 11:48:48;;;;;;;32.53;29.38;;;35.20;35.00;;;;;;5012554;28;20046;-71
2022/05/08 11:51:20;;;;;;;18.00;12.40;;;33.60;25.10;;;;;;5014195;28;20105;-71
2022/05/08 11:53:49;;;;;;;19.33;15.45;;;32.50;26.30;;;;;;5008261;28;20068;-70
2022/05/08 11:56:30;;;;;;;26.08;23.58;;;31.70;39.30;;;;;;5021056;28;20109;-74
2022/05/08 11:58:59;;;;;;;;;;;31.40;28.70;;;;;;5011460;28;20022;-73
2022/05/08 12:01:28;;;;;;;15.90;10.60;;;31.40;47.40;;;;;;5008806;28;19932;-71
2022/05/08 12:03:56;;;;;;;15.75;11.43;;;33.00;26.60;;;;;;5020717;28;20049;-74
2022/05/08 12:06:22;;;;;;;17.10;13.73;;;;;;;;;;5020678;28;20029;-74
2022/05/08 12:08:49;;;;;;;14.25;10.50;;;36.50;34.60;;;;;;5015787;28;20037;-75
2022/05/08 12:11:28;;;;;;;13.13;10.18;;;35.00;24.20;;;;;;5010938;28;20449;-76
2022/05/08 12:14:07;;;;;;;16.30;10.48;;;33.40;25.90;;;;;;5010530;28;20060;-75
2022/05/08 12:16:34;;;;;;;14.57;10.30;;;32.10;48.40;;;;;;5023294;28;20112;-74
2022/05/08 12:19:15;;;;;;;15.48;10.02;;;31.90;50.20;;;;;;5021262;28;20040;-74
2022/05/08 12:21:43;;;;;;;35.05;10.50;;;30.50;33.20;;;;;;5020210;28;20037;-72
2022/05/08 12:24:14;;;;;;;20.17;10.10;;;29.50;30.50;;;;;;5011254;28;20034;-71
2022/05/08 12:26:41;;;;;;;21.65;10.65;;;30.10;52.50;;;;;;5007186;28;20074;-72
2022/05/08 12:29:14;;;;;;;16.20;10.25;;;29.40;56.10;;;;;;5018426;28;20042;-70
2022/05/08 12:31:40;;;;;;;12.00;7.40;;;29.10;57.50;;;;;;5025041;28;20473;-71
2022/05/08 12:34:06;;;;;;;13.00;7.80;;;28.90;41.20;;;;;;5018629;28;20055;-70
2022/05/08 12:36:32;;;;;;;15.90;8.38;;;29.70;29.60;;;;;;5017030;28;20390;-71
2022/05/08 12:38:59;;;;;;;12.13;7.97;;;;;;;;;;5013488;28;20112;-73
2022/05/08 12:41:25;;;;;;;14.57;8.90;;;;;;;;;;5005197;28;20038;-71
2022/05/08 12:43:50;;;;;;;12.23;7.70;;;31.80;31.70;;;;;;5011234;28;20032;-72
2022/05/08 12:46:16;;;;;;;13.07;7.78;;;32.50;35.60;;;;;;5033252;28;20038;-72
2022/05/08 12:48:42;;;;;;;10.43;7.13;;;34.80;40.00;;;;;;5009548;28;20148;-71
2022/05/08 12:51:08;;;;;;;12.43;6.15;;;;;;;;;;5004543;28;20052;-71
2022/05/08 12:53:35;;;;;;;11.30;6.47;;;34.80;23.60;;;;;;5008965;28;20116;-72
2022/05/08 12:56:01;;;;;;;11.00;7.10;;;36.50;22.00;;;;;;5016560;28;20036;-71
2022/05/08 13:01:11;;;;;;;11.35;5.75;;;37.30;21.90;;;;;;5012115;28;20095;-70
2022/05/08 13:03:37;;;;;;;11.27;6.28;;;38.30;21.20;;;;;;5017310;28;20026;-70
2022/05/08 13:06:03;;;;;;;11.63;5.80;;;38.20;21.10;;;;;;5013765;28;20481;-69
2022/05/08 13:08:29;;;;;;;26.60;6.60;;;37.20;22.80;;;;;;5012553;28;20041;-69
2022/05/08 13:10:55;;;;;;;11.73;6.55;;;34.90;24.50;;;;;;5005445;28;20052;-71
2022/05/08 13:13:20;;;;;;;10.18;6.05;;;33.40;26.10;;;;;;5005529;28;20109;-69
2022/05/08 13:15:46;;;;;;;12.80;6.93;;;32.50;25.90;;;;;;5018095;28;20045;-69
2022/05/08 13:18:12;;;;;;;8.23;5.43;;;31.50;28.20;;;;;;5009513;28;20040;-69
2022/05/08 13:20:38;;;;;;;9.27;5.25;;;30.40;27.80;;;;;;5007176;28;20060;-69
2022/05/08 13:23:04;;;;;;;13.35;5.57;;;30.60;29.30;;;;;;5006034;28;20487;-69
2022/05/08 13:25:30;;;;;;;8.05;5.30;;;30.40;29.50;;;;;;5010048;28;20441;-69